TimeMDT,TemperatureF,Dew PointF,Humidity,Sea Level PressureIn,VisibilityMPH,Wind Direction,Wind SpeedMPH,Gust SpeedMPH,PrecipitationIn,Events,Conditions,WindDirDegrees,DateUTC
12:53 AM,48.9,24.1,38,29.78,10.0,East,3.5,-,N/A,,Clear,90,2012-10-03 06:53:00
1:53 AM,46.9,24.1,41,29.78,10.0,Calm,Calm,-,N/A,,Clear,0,2012-10-03 07:53:00
2:53 AM,42.1,21.9,45,29.79,10.0,Variable,3.5,-,N/A,,Clear,0,2012-10-03 08:53:00
3:53 AM,44.1,21.9,42,29.77,10.0,SE,4.6,-,N/A,,Clear,140,2012-10-03 09:53:00
4:53 AM,50.0,12.9,23,29.75,10.0,WNW,15.0,19.6,N/A,,Clear,290,2012-10-03 10:53:00
5:53 AM,46.0,12.0,25,29.80,10.0,Calm,Calm,-,N/A,,Clear,0,2012-10-03 11:53:00
6:53 AM,48.0,10.0,22,29.83,10.0,ESE,3.5,-,N/A,,Clear,110,2012-10-03 12:53:00
7:53 AM,48.0,10.0,22,29.84,10.0,Calm,Calm,-,N/A,,Clear,0,2012-10-03 13:53:00
8:53 AM,51.1,14.0,23,29.87,10.0,Calm,Calm,-,N/A,,Clear,0,2012-10-03 14:53:00
9:53 AM,55.9,10.9,17,29.84,10.0,South,4.6,-,N/A,,Clear,180,2012-10-03 15:53:00
10:53 AM,60.1,1.9,10,29.83,10.0,NNW,16.1,24.2,N/A,,Clear,340,2012-10-03 16:53:00
11:53 AM,61.0,1.0,9,29.83,10.0,NW,10.4,20.7,N/A,,Clear,310,2012-10-03 17:53:00
12:53 PM,61.0,-2.9,8,29.85,10.0,WNW,17.3,26.5,N/A,,Clear,290,2012-10-03 18:53:00
1:53 PM,62.1,-0.0,8,29.85,10.0,NW,18.4,32.2,N/A,,Clear,320,2012-10-03 19:53:00
2:53 PM,59.0,3.9,11,29.92,10.0,NNW,23.0,33.4,N/A,,Clear,330,2012-10-03 20:53:00
3:53 PM,57.9,8.1,14,29.94,10.0,NW,23.0,28.8,N/A,,Clear,320,2012-10-03 21:53:00
4:53 PM,55.9,8.1,15,29.96,10.0,NNW,19.6,25.3,N/A,,Clear,330,2012-10-03 22:53:00
5:53 PM,52.0,9.0,18,30.02,10.0,North,15.0,25.3,N/A,,Clear,350,2012-10-03 23:53:00
6:53 PM,46.0,9.0,22,30.06,10.0,North,12.7,-,N/A,,Clear,360,2012-10-04 00:53:00
7:53 PM,41.0,7.0,25,30.09,10.0,North,12.7,-,N/A,,Clear,360,2012-10-04 01:53:00
8:53 PM,37.0,6.1,28,30.13,10.0,North,8.1,-,N/A,,Clear,350,2012-10-04 02:53:00
9:53 PM,28.9,7.0,40,30.16,10.0,WNW,3.5,-,N/A,,Clear,300,2012-10-04 03:53:00
10:53 PM,28.0,16.0,61,30.18,10.0,SW,8.1,-,N/A,,Clear,220,2012-10-04 04:53:00
11:53 PM,28.0,18.0,66,30.19,10.0,SSW,9.2,-,N/A,,Clear,210,2012-10-04 05:53:00